Time;durP1;ratioP1;P1;durP2;ratioP2;P2;SDS_P1;SDS_P2;PMS_P1;PMS_P2;Temp;Humidity;BMP_temperature;BMP_pressure;BME280_temperature;BME280_humidity;BME280_pressure;Samples;Min_cycle;Max_cycle;Signal;HPM_P1;HPM_P2
2023/01/10 00:00:35;;;;;;;5.93;2.05;;;;;;;5.94;nan;100179.41;5017379;28;20134;-89
2023/01/10 00:03:02;;;;;;;3.30;1.77;;;;;;;5.98;nan;100185.22;5033761;28;20025;-88
2023/01/10 00:05:28;;;;;;;3.53;1.48;;;;;;;5.98;nan;100190.47;5013465;28;20030;-88
2023/01/10 00:07:53;;;;;;;3.22;1.40;;;;;;;5.99;nan;100194.78;4993335;28;20068;-88
2023/01/10 00:10:18;;;;;;;2.45;1.50;;;;;;;6.00;nan;100191.19;5002912;28;20129;-88
2023/01/10 00:15:31;;;;;;;3.55;1.55;;;;;;;6.03;nan;100198.81;5030594;28;20032;-88
2023/01/10 00:17:57;;;;;;;2.60;1.35;;;;;;;6.01;nan;100205.97;5029371;28;20064;-89
2023/01/10 00:20:22;;;;;;;3.20;1.55;;;;;;;6.01;nan;100203.34;5032420;28;20060;-88
2023/01/10 00:22:49;;;;;;;3.50;1.48;;;;;;;5.99;nan;100207.91;5017288;28;20038;-88
2023/01/10 00:25:15;;;;;;;3.10;1.75;;;;;;;5.98;nan;100206.22;5022509;28;20064;-88
2023/01/10 00:27:40;;;;;;;4.07;1.83;;;;;;;5.91;nan;100211.16;5031371;28;20041;-88
2023/01/10 00:30:13;;;;;;;3.45;1.60;;;;;;;5.97;nan;100216.88;5016247;28;20033;-89
2023/01/10 00:32:40;;;;;;;1.98;1.30;;;;;;;5.99;nan;100223.66;5018616;28;20039;-88
2023/01/10 00:35:06;;;;;;;1.77;1.30;;;;;;;6.03;nan;100229.47;5031086;28;20035;-88
2023/01/10 00:37:31;;;;;;;3.17;1.33;;;;;;;6.06;nan;100234.47;5031747;28;20032;-88
2023/01/10 00:39:57;;;;;;;2.90;1.60;;;;;;;6.09;nan;100237.66;5013471;28;20664;-88
2023/01/10 00:45:07;;;;;;;3.90;1.65;;;;;;;6.04;nan;100252.97;5029587;28;20052;-88
2023/01/10 00:47:32;;;;;;;2.72;1.52;;;;;;;6.09;nan;100257.81;5011836;28;20124;-88
2023/01/10 00:49:57;;;;;;;3.40;1.80;;;;;;;6.10;nan;100265.59;5011476;28;20038;-88
2023/01/10 00:52:23;;;;;;;3.75;1.60;;;;;;;6.12;nan;100266.25;5011009;28;20037;-88
2023/01/10 00:54:48;;;;;;;2.45;1.40;;;;;;;6.07;nan;100267.63;5012139;28;20025;-88
2023/01/10 00:57:13;;;;;;;2.13;1.10;;;;;;;6.05;nan;100283.47;5049331;28;20041;-87
2023/01/10 00:59:38;;;;;;;2.30;1.15;;;;;;;6.09;nan;100292.78;5011102;28;20054;-88
2023/01/10 01:02:04;;;;;;;2.20;1.10;;;;;;;6.07;nan;100296.50;5010960;28;20458;-88
2023/01/10 01:04:33;;;;;;;2.42;1.20;;;;;;;6.06;nan;100306.16;5014988;28;20089;-88
2023/01/10 01:07:00;;;;;;;2.47;1.30;;;;;;;6.05;nan;100316.78;5021687;28;20042;-87
2023/01/10 01:09:25;;;;;;;2.17;1.15;;;;;;;6.07;nan;100320.94;5039595;28;20053;-87
2023/01/10 01:11:50;;;;;;;3.05;1.15;;;;;;;6.05;nan;100322.03;5032566;28;20029;-87
2023/01/10 01:14:15;;;;;;;1.42;1.02;;;;;;;6.04;nan;100331.69;5039729;28;20052;-87
2023/01/10 01:16:41;;;;;;;1.63;1.00;;;;;;;6.06;nan;100328.97;5039053;28;20033;-86
2023/01/10 01:19:06;;;;;;;2.53;1.00;;;;;;;6.04;nan;100342.19;5022034;28;20048;-86
2023/01/10 01:21:31;;;;;;;2.42;0.80;;;;;;;5.93;nan;100347.47;5020479;28;20111;-86
2023/01/10 01:23:57;;;;;;;1.00;0.70;;;;;;;5.93;nan;100350.94;5019701;28;20034;-87
2023/01/10 01:26:23;;;;;;;1.38;0.95;;;;;;;5.83;nan;100371.00;5021678;28;20068;-87
2023/01/10 01:28:49;;;;;;;0.98;0.73;;;;;;;5.81;nan;100372.09;5033404;28;20277;-87
2023/01/10 01:31:14;;;;;;;1.73;0.73;;;;;;;5.84;nan;100392.81;5016003;28;20112;-87
2023/01/10 01:33:39;;;;;;;1.63;0.77;;;;;;;5.74;nan;100398.84;5007252;28;20036;-87
2023/01/10 01:36:09;;;;;;;1.30;0.80;;;;;;;5.72;nan;100406.00;5016501;28;20592;-86
2023/01/10 01:38:35;;;;;;;0.88;0.50;;;;;;;5.71;nan;100427.09;5029519;28;20084;-87
2023/01/10 01:41:01;;;;;;;1.75;0.70;;;;;;;5.72;nan;100428.75;5001918;28;20026;-86
2023/01/10 01:43:30;;;;;;;0.90;0.60;;;;;;;5.70;nan;100439.38;5039164;28;20088;-87
2023/01/10 01:45:59;;;;;;;1.58;0.70;;;;;;;5.67;nan;100439.66;5031605;28;20091;-86
2023/01/10 01:48:41;;;;;;;1.23;0.60;;;;;;;5.69;nan;100452.63;5012362;28;20517;-86
2023/01/10 01:51:12;;;;;;;0.70;0.60;;;;;;;5.69;nan;100471.81;5004629;28;20030;-86
2023/01/10 01:53:58;;;;;;;;;;;;;;;5.65;nan;100466.94;5023740;28;20535;-87
2023/01/10 01:56:33;;;;;;;0.77;0.60;;;;;;;5.64;nan;100486.25;5024148;28;19921;-87
2023/01/10 01:59:04;;;;;;;1.23;0.65;;;;;;;5.66;nan;100495.66;5034388;28;20029;-86
2023/01/10 02:01:30;;;;;;;1.13;0.60;;;;;;;5.64;nan;100505.44;5002986;28;20522;-87
2023/01/10 02:04:27;;;;;;;2.20;0.70;;;;;;;5.62;nan;100515.22;5023462;28;20037;-86
2023/01/10 02:06:54;;;;;;;0.90;0.60;;;;;;;5.62;nan;100514.38;5006792;28;20664;-86
2023/01/10 02:09:26;;;;;;;1.27;0.60;;;;;;;5.63;nan;100518.69;5023089;28;20038;-87
2023/01/10 02:11:53;;;;;;;1.20;0.60;;;;;;;5.61;nan;100528.47;5018594;28;21055;-86
2023/01/10 02:14:20;;;;;;;0.68;0.50;;;;;;;5.58;nan;100531.31;5031576;28;20060;-87
2023/01/10 02:16:46;;;;;;;0.55;0.52;;;;;;;5.57;nan;100527.88;5014134;28;20041;-87
2023/01/10 02:19:30;;;;;;;1.00;0.60;;;;;;;5.62;nan;100532.75;5010007;28;20498;-87
2023/01/10 02:22:41;;;;;;;1.02;0.57;;;;;;;5.62;nan;100545.88;5001969;28;20553;-86
2023/01/10 02:25:24;;;;;;;1.48;0.70;;;;;;;5.59;nan;100541.69;5017809;28;20073;-86
2023/01/10 02:28:27;;;;;;;1.42;0.60;;;;;;;5.60;nan;100543.38;5020450;28;20046;-87
2023/01/10 02:31:31;;;;;;;1.05;0.60;;;;;;;5.62;nan;100546.69;5026445;28;20033;-86
2023/01/10 02:34:22;;;;;;;2.15;0.90;;;;;;;5.61;nan;100546.84;5034084;28;20120;-87
2023/01/10 02:37:33;;;;;;;0.55;0.50;;;;;;;5.64;nan;100547.41;5000691;28;20034;-86
2023/01/10 02:40:09;;;;;;;0.68;0.55;;;;;;;5.65;nan;100556.97;5008666;28;20111;-87
2023/01/10 02:42:42;;;;;;;1.05;0.60;;;;;;;5.65;nan;100556.13;5011338;28;20045;-87
2023/01/10 02:45:37;;;;;;;1.38;0.70;;;;;;;5.68;nan;100561.97;5012808;28;20026;-87
2023/01/10 02:48:03;;;;;;;0.75;0.50;;;;;;;5.67;nan;100565.56;5027674;28;20108;-87
2023/01/10 02:50:28;;;;;;;1.95;0.65;;;;;;;5.68;nan;100564.59;5036388;28;20486;-87
2023/01/10 02:52:58;;;;;;;1.50;0.73;;;;;;;5.65;nan;100564.84;5006953;28;20121;-87
2023/01/10 02:55:38;;;;;;;2.05;0.70;;;;;;;5.66;nan;100570.91;5018670;28;20307;-87
2023/01/10 02:58:23;;;;;;;1.37;0.70;;;;;;;5.63;nan;100573.78;5012517;28;20034;-87
2023/01/10 03:01:07;;;;;;;1.10;0.70;;;;;;;5.61;nan;100573.91;5038215;28;20272;-87
2023/01/10 03:03:42;;;;;;;1.85;0.70;;;;;;;5.62;nan;100577.34;5031743;28;20037;-87
2023/01/10 03:06:27;;;;;;;1.42;0.80;;;;;;;5.62;nan;100588.66;5016065;28;20025;-87
2023/01/10 03:09:05;;;;;;;1.77;0.60;;;;;;;5.63;nan;100590.34;5036394;28;20045;-87
2023/01/10 03:11:40;;;;;;;1.27;0.70;;;;;;;5.64;nan;100592.00;5009240;28;20036;-87
2023/01/10 03:14:13;;;;;;;0.63;0.60;;;;;;;5.65;nan;100598.09;5019736;28;20033;-86
2023/01/10 03:16:43;;;;;;;2.28;0.88;;;;;;;5.66;nan;100597.16;5032722;28;20087;-87
2023/01/10 03:19:11;;;;;;;1.15;0.70;;;;;;;5.70;nan;100607.28;5034705;28;20056;-87
2023/01/10 03:21:37;;;;;;;2.75;0.90;;;;;;;5.69;nan;100602.97;5041983;28;20033;-87
2023/01/10 03:24:09;;;;;;;2.65;0.90;;;;;;;5.66;nan;100618.97;5015949;28;20037;-87
2023/01/10 03:26:46;;;;;;;1.08;0.80;;;;;;;5.66;nan;100618.97;5025375;28;20065;-87
2023/01/10 03:29:17;;;;;;;1.33;0.70;;;;;;;5.66;nan;100621.59;5004857;28;20036;-86
2023/01/10 03:31:56;;;;;;;1.63;0.75;;;;;;;5.66;nan;100624.22;5005703;28;20026;-87
2023/01/10 03:34:23;;;;;;;1.15;0.80;;;;;;;5.65;nan;100630.44;5016278;28;20489;-87
2023/01/10 03:37:20;;;;;;;4.43;1.40;;;;;;;5.65;nan;100630.44;5025206;28;20538;-87
2023/01/10 03:40:12;;;;;;;2.35;1.20;;;;;;;5.64;nan;100635.78;5006595;28;20179;-87
2023/01/10 03:45:50;;;;;;;2.78;1.42;;;;;;;5.61;nan;100649.13;5025856;28;20080;-87
2023/01/10 03:48:17;;;;;;;1.50;1.02;;;;;;;5.61;nan;100659.63;5032528;28;20044;-86
2023/01/10 03:50:44;;;;;;;4.68;1.60;;;;;;;5.60;nan;100661.44;5010255;28;20482;-87
2023/01/10 03:53:13;;;;;;;1.83;1.20;;;;;;;5.60;nan;100658.81;5030475;28;20047;-87
2023/01/10 03:55:41;;;;;;;7.72;1.45;;;;;;;5.58;nan;100667.72;5004192;28;20043;-86
2023/01/10 03:58:06;;;;;;;3.45;1.58;;;;;;;5.57;nan;100671.31;5011543;28;20028;-87
2023/01/10 04:00:32;;;;;;;3.72;1.92;;;;;;;5.58;nan;100675.59;5019609;28;20037;-86
2023/01/10 04:02:58;;;;;;;4.90;2.10;;;;;;;5.57;nan;100663.44;5015126;28;20052;-86
2023/01/10 04:05:24;;;;;;;4.43;2.00;;;;;;;5.53;nan;100674.16;5005041;28;20041;-86
2023/01/10 04:07:49;;;;;;;5.35;1.92;;;;;;;5.54;nan;100669.75;5024358;28;20032;-86
2023/01/10 04:10:15;;;;;;;6.18;1.88;;;;;;;5.57;nan;100682.63;5021162;28;20034;-87
2023/01/10 04:12:40;;;;;;;4.20;1.70;;;;;;;5.59;nan;100688.59;5020295;28;20040;-86
2023/01/10 04:15:06;;;;;;;10.07;2.13;;;;;;;5.59;nan;100693.84;5024310;28;20036;-86
2023/01/10 04:17:31;;;;;;;4.75;1.80;;;;;;;5.57;nan;100698.38;5012837;28;20380;-86
2023/01/10 04:19:57;;;;;;;5.95;1.73;;;;;;;5.59;nan;100701.72;5012923;28;20057;-86
2023/01/10 04:22:22;;;;;;;3.47;1.50;;;;;;;5.57;nan;100697.53;5019269;28;20044;-86
2023/01/10 04:24:50;;;;;;;5.18;2.03;;;;;;;5.58;nan;100707.91;5028904;28;20042;-86
2023/01/10 04:27:15;;;;;;;4.90;1.88;;;;;;;5.57;nan;100716.72;5010942;28;20112;-86
2023/01/10 04:29:41;;;;;;;3.80;1.55;;;;;;;5.52;nan;100721.47;5032081;28;20546;-86
2023/01/10 04:32:06;;;;;;;7.50;1.80;;;;;;;5.56;nan;100724.72;5013474;28;20041;-87
2023/01/10 04:34:31;;;;;;;4.18;1.50;;;;;;;5.55;nan;100726.50;5025224;28;20041;-87
2023/01/10 04:36:57;;;;;;;3.88;1.70;;;;;;;5.49;nan;100730.41;5024546;28;20037;-86
2023/01/10 04:39:22;;;;;;;3.97;1.50;;;;;;;5.52;nan;100730.19;5025204;28;20041;-86
2023/01/10 04:41:47;;;;;;;3.30;1.50;;;;;;;5.50;nan;100736.50;5008682;28;20132;-87
2023/01/10 04:44:13;;;;;;;4.55;1.52;;;;;;;5.50;nan;100741.75;5029672;28;20048;-87
2023/01/10 04:46:38;;;;;;;2.85;1.40;;;;;;;5.50;nan;100744.34;5026325;28;20432;-86
2023/01/10 04:49:03;;;;;;;3.75;1.52;;;;;;;5.51;nan;100739.00;5017103;28;20140;-87
2023/01/10 04:51:29;;;;;;;3.92;1.45;;;;;;;5.52;nan;100731.97;5016949;28;20406;-86
2023/01/10 04:53:54;;;;;;;5.22;1.88;;;;;;;5.51;nan;100744.25;5016547;28;20026;-87
2023/01/10 04:56:21;;;;;;;4.05;1.73;;;;;;;5.50;nan;100749.59;5009874;28;20034;-86
2023/01/10 04:58:47;;;;;;;4.45;1.70;;;;;;;5.47;nan;100749.84;5027769;28;20033;-86
2023/01/10 05:01:21;;;;;;;3.45;1.77;;;;;;;5.49;nan;100753.19;5019477;28;20061;-86
2023/01/10 05:03:51;;;;;;;4.13;1.88;;;;;;;5.52;nan;100752.97;5011868;28;20044;-86
2023/01/10 05:06:18;;;;;;;5.22;1.73;;;;;;;5.44;nan;100769.25;5026712;28;20523;-86
2023/01/10 05:08:43;;;;;;;6.47;2.08;;;;;;;5.48;nan;100775.09;5037956;28;20036;-86
2023/01/10 05:11:09;;;;;;;4.75;1.70;;;;;;;5.47;nan;100776.91;5034775;28;20108;-87
2023/01/10 05:13:34;;;;;;;7.18;2.00;;;;;;;5.47;nan;100776.91;5042547;28;20398;-86
2023/01/10 05:16:00;;;;;;;4.18;1.60;;;;;;;5.48;nan;100777.72;5006693;28;20077;-86
2023/01/10 05:18:26;;;;;;;5.20;1.90;;;;;;;5.46;nan;100775.25;5019299;28;20055;-85
2023/01/10 05:20:52;;;;;;;5.07;2.15;;;;;;;5.48;nan;100783.84;5022917;28;20562;-86
2023/01/10 05:23:17;;;;;;;4.00;1.85;;;;;;;5.48;nan;100791.72;5027474;28;20041;-85
2023/01/10 05:25:43;;;;;;;5.10;1.67;;;;;;;5.48;nan;100799.56;5025322;28;20034;-85
2023/01/10 05:28:08;;;;;;;4.00;1.88;;;;;;;5.46;nan;100804.09;5007873;28;20526;-85
2023/01/10 05:30:34;;;;;;;5.35;1.80;;;;;;;5.46;nan;100804.09;5020612;28;20080;-85
2023/01/10 05:32:59;;;;;;;3.92;1.60;;;;;;;5.45;nan;100812.88;5039867;28;20038;-85
2023/01/10 05:35:25;;;;;;;2.97;1.55;;;;;;;5.46;nan;100813.75;5032177;28;20029;-87
2023/01/10 05:37:50;;;;;;;6.00;2.10;;;;;;;5.46;nan;100808.50;5012861;28;20029;-85
2023/01/10 05:40:16;;;;;;;5.22;1.60;;;;;;;5.47;nan;100812.78;5012361;28;20732;-86
2023/01/10 05:42:41;;;;;;;6.55;1.60;;;;;;;5.45;nan;100818.13;5004266;28;20082;-85
2023/01/10 05:45:07;;;;;;;5.72;1.70;;;;;;;5.46;nan;100817.19;5014441;28;20033;-85
2023/01/10 05:47:32;;;;;;;6.22;1.88;;;;;;;5.47;nan;100828.53;5027706;28;20651;-86
2023/01/10 05:49:57;;;;;;;7.93;2.22;;;;;;;5.45;nan;100831.25;5027644;28;20122;-85
2023/01/10 05:52:23;;;;;;;3.35;1.55;;;;;;;5.45;nan;100830.41;5027929;28;20048;-85
2023/01/10 05:54:48;;;;;;;4.22;1.60;;;;;;;5.41;nan;100834.19;5013321;28;20033;-85
2023/01/10 05:57:13;;;;;;;4.97;1.75;;;;;;;5.40;nan;100833.38;5013582;28;20040;-85
2023/01/10 05:59:39;;;;;;;5.80;1.60;;;;;;;5.35;nan;100829.41;5026482;28;20044;-86
2023/01/10 06:02:04;;;;;;;4.60;1.85;;;;;;;5.27;nan;100833.44;5023071;28;20034;-86
2023/01/10 06:04:29;;;;;;;6.80;1.70;;;;;;;5.23;nan;100846.88;5005951;28;20672;-85
2023/01/10 06:06:55;;;;;;;8.93;2.03;;;;;;;5.19;nan;100840.16;5019500;28;20507;-88
2023/01/10 06:09:20;;;;;;;4.80;1.95;;;;;;;5.18;nan;100854.22;4994116;28;20099;-87
2023/01/10 06:11:45;;;;;;;2.83;1.45;;;;;;;5.12;nan;100858.09;5011036;28;20038;-86
2023/01/10 06:14:11;;;;;;;4.78;2.20;;;;;;;5.09;nan;100869.63;5036633;28;20583;-86
2023/01/10 06:16:36;;;;;;;7.95;2.08;;;;;;;5.04;nan;100882.22;5028696;28;20029;-86
2023/01/10 06:19:01;;;;;;;4.95;2.20;;;;;;;5.05;nan;100880.44;5012061;28;20600;-86
2023/01/10 06:21:27;;;;;;;7.95;2.00;;;;;;;5.07;nan;100878.56;5030206;28;20110;-86
2023/01/10 06:23:52;;;;;;;5.45;1.73;;;;;;;5.08;nan;100886.31;5028099;28;20045;-86
2023/01/10 06:26:18;;;;;;;5.32;2.08;;;;;;;5.11;nan;100901.81;5009931;28;20587;-86
2023/01/10 06:28:43;;;;;;;5.40;1.92;;;;;;;5.17;nan;100904.97;5007026;28;20558;-86
2023/01/10 06:31:09;;;;;;;5.03;1.50;;;;;;;5.18;nan;100911.91;5012685;28;20044;-86
2023/01/10 06:33:40;;;;;;;6.13;1.60;;;;;;;5.21;nan;100920.38;5013752;28;20083;-86
2023/01/10 06:36:05;;;;;;;5.68;2.00;;;;;;;5.25;nan;100916.59;5012762;28;20029;-87
2023/01/10 06:38:31;;;;;;;7.40;2.20;;;;;;;5.27;nan;100916.50;5014335;28;20033;-86
2023/01/10 06:40:56;;;;;;;5.20;1.98;;;;;;;5.31;nan;100925.81;5022129;28;20568;-86
2023/01/10 06:43:21;;;;;;;5.75;1.60;;;;;;;5.33;nan;100926.53;5014498;28;20742;-86
2023/01/10 06:45:47;;;;;;;5.43;1.63;;;;;;;5.37;nan;100929.78;5034106;28;20046;-86
2023/01/10 06:48:12;;;;;;;7.35;1.92;;;;;;;5.38;nan;100934.91;5026265;28;20084;-86
2023/01/10 06:50:37;;;;;;;7.13;2.10;;;;;;;5.43;nan;100938.03;5022892;28;20126;-86
2023/01/10 06:53:03;;;;;;;6.47;1.83;;;;;;;5.43;nan;100943.28;5013315;28;20611;-86
2023/01/10 06:55:30;;;;;;;5.65;1.98;;;;;;;5.44;nan;100952.03;5026382;28;20083;-86
2023/01/10 06:58:00;;;;;;;3.55;1.40;;;;;;;5.47;nan;100962.28;5024574;28;20037;-85
2023/01/10 07:00:28;;;;;;;4.05;1.50;;;;;;;5.46;nan;100956.22;5008590;28;20185;-86
2023/01/10 07:02:56;;;;;;;5.75;1.98;;;;;;;5.44;nan;100967.75;5011961;28;20061;-86
2023/01/10 07:05:22;;;;;;;6.07;1.75;;;;;;;5.47;nan;100968.38;5033830;28;20066;-86
2023/01/10 07:07:47;;;;;;;5.82;1.80;;;;;;;5.51;nan;100969.84;5010327;28;20069;-86
2023/01/10 07:10:13;;;;;;;8.30;2.10;;;;;;;5.53;nan;100965.31;5004849;28;20111;-88
2023/01/10 07:12:38;;;;;;;6.15;1.80;;;;;;;5.54;nan;100961.75;5013561;28;20045;-87
2023/01/10 07:15:05;;;;;;;4.78;2.15;;;;;;;5.59;nan;100952.72;5030408;28;20029;-88
2023/01/10 07:17:30;;;;;;;7.13;2.20;;;;;;;5.60;nan;100963.09;5033603;28;20427;-88
2023/01/10 07:19:55;;;;;;;9.68;2.58;;;;;;;5.57;nan;100967.72;5013210;28;20071;-88
2023/01/10 07:22:21;;;;;;;6.32;2.33;;;;;;;5.56;nan;100980.00;5026064;28;20125;-88
2023/01/10 07:24:46;;;;;;;7.63;2.30;;;;;;;5.58;nan;100988.59;5015405;28;20053;-86
2023/01/10 07:27:12;;;;;;;10.70;2.83;;;;;;;5.58;nan;100996.47;5026964;28;20582;-86
2023/01/10 07:29:40;;;;;;;11.18;3.45;;;;;;;5.59;nan;100992.91;5013164;28;20046;-86
2023/01/10 07:32:05;;;;;;;10.95;3.63;;;;;;;5.54;nan;100997.63;5017828;28;20045;-87
2023/01/10 07:34:30;;;;;;;11.65;4.20;;;;;;;5.53;nan;101014.31;5018247;28;20025;-86
2023/01/10 07:36:56;;;;;;;10.15;3.70;;;;;;;5.50;nan;101025.00;5019962;28;20420;-86
2023/01/10 07:39:21;;;;;;;10.80;3.67;;;;;;;5.54;nan;101039.59;5014149;28;20538;-86
2023/01/10 07:41:48;;;;;;;10.63;3.63;;;;;;;5.52;nan;101025.75;5018644;28;20056;-86
2023/01/10 07:44:13;;;;;;;7.72;3.40;;;;;;;5.51;nan;101034.56;5032662;28;20042;-86
2023/01/10 07:46:38;;;;;;;12.90;2.95;;;;;;;5.54;nan;101026.47;5035660;28;20044;-86
2023/01/10 07:49:06;;;;;;;6.82;2.80;;;;;;;5.56;nan;101029.00;5016919;28;20479;-86
2023/01/10 07:51:31;;;;;;;10.02;2.95;;;;;;;5.54;nan;101037.81;5012893;28;20046;-86
2023/01/10 07:53:57;;;;;;;9.30;2.70;;;;;;;5.56;nan;101031.63;5029638;28;20056;-86
2023/01/10 07:56:23;;;;;;;6.93;2.40;;;;;;;5.56;nan;101042.97;5013457;28;20091;-87
2023/01/10 07:58:48;;;;;;;8.63;2.50;;;;;;;5.53;nan;101043.19;5019004;28;20487;-86
2023/01/10 08:01:14;;;;;;;6.28;2.17;;;;;;;5.52;nan;101044.94;5011491;28;20045;-86
2023/01/10 08:03:40;;;;;;;8.30;2.35;;;;;;;5.51;nan;101047.69;5016386;28;20060;-86
2023/01/10 08:06:09;;;;;;;8.63;2.53;;;;;;;5.49;nan;101055.66;5035157;28;20056;-86
2023/01/10 08:08:35;;;;;;;8.90;2.55;;;;;;;5.52;nan;101065.94;5033368;28;20041;-86
2023/01/10 08:11:03;;;;;;;10.50;2.28;;;;;;;5.52;nan;101071.16;5030941;28;20097;-86
2023/01/10 08:13:30;;;;;;;10.02;2.42;;;;;;;5.53;nan;101062.38;5032169;28;20045;-86
2023/01/10 08:15:55;;;;;;;10.35;2.63;;;;;;;5.56;nan;101061.31;5013505;28;20399;-86
2023/01/10 08:18:22;;;;;;;7.80;2.67;;;;;;;5.54;nan;101055.34;5013811;28;20030;-86
2023/01/10 08:20:48;;;;;;;6.70;2.00;;;;;;;5.50;nan;101059.09;5010328;28;20045;-87
2023/01/10 08:23:14;;;;;;;7.50;2.40;;;;;;;5.48;nan;101061.84;5016090;28;20045;-86
2023/01/10 08:25:43;;;;;;;5.53;1.88;;;;;;;5.44;nan;101063.00;5016472;28;20048;-86
2023/01/10 08:28:08;;;;;;;8.23;2.15;;;;;;;5.37;nan;101067.00;5031557;28;20037;-86
2023/01/10 08:30:34;;;;;;;9.13;2.60;;;;;;;5.32;nan;101067.31;5015195;28;20037;-86
2023/01/10 08:33:05;;;;;;;10.75;2.13;;;;;;;5.28;nan;101070.25;5030102;28;20033;-86
2023/01/10 08:35:30;;;;;;;8.77;2.40;;;;;;;5.27;nan;101079.91;5032230;28;20041;-86
2023/01/10 08:37:59;;;;;;;8.50;2.80;;;;;;;5.29;nan;101080.63;5011965;28;20035;-86
2023/01/10 08:40:25;;;;;;;7.28;2.10;;;;;;;5.31;nan;101065.63;5028356;28;20125;-86
2023/01/10 08:43:01;;;;;;;9.48;2.47;;;;;;;5.33;nan;101074.22;5013509;28;20057;-87
2023/01/10 08:45:27;;;;;;;7.05;2.20;;;;;;;5.28;nan;101078.94;5013689;28;20395;-86
2023/01/10 08:47:53;;;;;;;7.43;2.55;;;;;;;5.31;nan;101086.63;5013230;28;20256;-87
2023/01/10 08:50:18;;;;;;;9.27;2.67;;;;;;;5.39;nan;101090.50;5032532;28;20041;-87
2023/01/10 08:52:43;;;;;;;8.77;2.53;;;;;;;5.40;nan;101086.91;5012886;28;20033;-86
2023/01/10 08:55:09;;;;;;;10.68;2.60;;;;;;;5.45;nan;101098.75;5012525;28;20133;-86
2023/01/10 08:57:35;;;;;;;10.20;2.63;;;;;;;5.49;nan;101099.41;5030045;28;20391;-87
2023/01/10 09:00:00;;;;;;;8.50;2.22;;;;;;;5.56;nan;101108.53;5014376;28;20033;-87
2023/01/10 09:02:25;;;;;;;5.80;2.00;;;;;;;5.71;nan;101104.84;5014244;28;20045;-86
2023/01/10 09:04:51;;;;;;;8.80;2.47;;;;;;;5.80;nan;101106.00;5018055;28;20061;-86
2023/01/10 09:07:16;;;;;;;10.35;2.67;;;;;;;5.89;nan;101108.00;5014899;28;20445;-86
2023/01/10 09:09:41;;;;;;;8.75;2.42;;;;;;;5.97;nan;101111.91;5033600;28;20036;-86
2023/01/10 09:12:53;;;;;;;6.30;2.38;;;;;;;5.99;nan;101118.72;5011904;28;21468;-86
2023/01/10 09:14:52;;;;;;;9.27;2.67;;;;;;;6.05;nan;101123.53;5030585;28;20120;-87
2023/01/10 09:17:18;;;;;;;8.35;2.67;;;;;;;6.12;nan;101122.13;5025056;28;20076;-86
2023/01/10 09:19:43;;;;;;;9.98;2.50;;;;;;;6.14;nan;101120.25;5034077;28;20042;-88
2023/01/10 09:22:08;;;;;;;9.23;2.65;;;;;;;6.18;nan;101127.94;5030114;28;20057;-86
2023/01/10 09:24:35;;;;;;;6.57;2.40;;;;;;;6.22;nan;101132.88;5012106;28;20060;-87
2023/01/10 09:27:00;;;;;;;10.32;3.33;;;;;;;6.27;nan;101136.00;5036090;28;20045;-86
2023/01/10 09:29:26;;;;;;;7.65;2.30;;;;;;;6.34;nan;101139.00;5014042;28;20518;-86
2023/01/10 09:31:51;;;;;;;5.60;2.20;;;;;;;6.43;nan;101135.72;5030520;28;20045;-86
2023/01/10 09:34:16;;;;;;;8.23;2.67;;;;;;;6.46;nan;101151.28;5013029;28;20630;-86
2023/01/10 09:36:42;;;;;;;7.13;2.25;;;;;;;6.49;nan;101155.47;5013300;28;20090;-86
2023/01/10 09:39:07;;;;;;;10.00;3.05;;;;;;;6.45;nan;101162.72;5031496;28;20076;-86
2023/01/10 09:41:46;;;;;;;8.90;2.55;;;;;;;6.48;nan;101159.88;5006248;28;20038;-86
2023/01/10 09:44:22;;;;;;;7.05;2.40;;;;;;;6.44;nan;101168.09;5028835;28;20049;-86
2023/01/10 09:47:14;;;;;;;10.68;3.10;;;;;;;6.48;nan;101166.91;5033465;28;20091;-86
2023/01/10 09:49:58;;;;;;;10.25;2.22;;;;;;;6.44;nan;101174.19;5014710;28;20407;-86
2023/01/10 09:52:33;;;;;;;11.07;2.92;;;;;;;6.43;nan;101174.28;5016641;28;20041;-86
2023/01/10 09:55:15;;;;;;;8.45;2.40;;;;;;;6.48;nan;101182.69;5034571;28;20036;-87
2023/01/10 09:57:41;;;;;;;7.68;2.30;;;;;;;6.50;nan;101176.38;5016582;28;20045;-86
2023/01/10 10:00:08;;;;;;;11.30;3.00;;;;;;;6.55;nan;101170.78;5016770;28;20056;-86
2023/01/10 10:02:44;;;;;;;9.32;2.38;;;;;;;6.53;nan;101180.56;5010502;28;20105;-86
2023/01/10 10:05:18;;;;;;;7.22;2.00;;;;;;;6.55;nan;101176.91;5011102;28;20132;-86
2023/01/10 10:07:49;;;;;;;9.10;2.60;;;;;;;6.55;nan;101174.28;5016217;28;20065;-88
2023/01/10 10:10:21;;;;;;;6.53;2.10;;;;;;;6.57;nan;101182.88;5016518;28;20396;-86
2023/01/10 10:13:15;;;;;;;7.50;2.10;;;;;;;6.57;nan;101171.53;5019162;28;20026;-86
2023/01/10 10:15:53;;;;;;;7.57;2.40;;;;;;;6.63;nan;101172.88;5025719;28;20093;-86
2023/01/10 10:18:31;;;;;;;10.93;2.75;;;;;;;6.68;nan;101182.09;5015913;28;20034;-86
2023/01/10 10:21:06;;;;;;;8.88;2.25;;;;;;;6.68;nan;101168.97;5017050;28;20025;-87
2023/01/10 10:23:48;;;;;;;8.90;2.65;;;;;;;6.74;nan;101175.56;5019427;28;20049;-87
2023/01/10 10:26:39;;;;;;;10.70;2.70;;;;;;;6.78;nan;101180.47;5017374;28;20057;-86
2023/01/10 10:29:29;;;;;;;8.13;2.30;;;;;;;6.86;nan;101173.84;5019160;28;20050;-87
2023/01/10 10:32:00;;;;;;;10.68;2.70;;;;;;;6.92;nan;101174.22;5035437;28;20029;-87
2023/01/10 10:34:46;;;;;;;8.20;2.60;;;;;;;6.91;nan;101167.31;5030881;28;20272;-86
2023/01/10 10:37:22;;;;;;;9.90;2.00;;;;;;;6.91;nan;101175.19;5019426;28;20037;-87
2023/01/10 10:39:56;;;;;;;8.43;2.65;;;;;;;6.88;nan;101175.41;5019093;28;20048;-87
2023/01/10 10:42:28;;;;;;;9.90;2.55;;;;;;;6.85;nan;101180.06;5036065;28;20061;-86
2023/01/10 10:45:14;;;;;;;9.48;2.50;;;;;;;6.85;nan;101180.06;5019312;28;20117;-87
2023/01/10 10:47:49;;;;;;;9.90;2.80;;;;;;;6.88;nan;101172.75;5016605;28;20072;-86
2023/01/10 10:50:14;;;;;;;9.88;2.78;;;;;;;6.82;nan;101167.97;5029195;28;20131;-87
2023/01/10 10:52:41;;;;;;;9.68;2.42;;;;;;;6.82;nan;101165.34;5017172;28;20037;-87
2023/01/10 10:55:14;;;;;;;10.02;2.80;;;;;;;6.89;nan;101168.34;5035648;28;20172;-86
2023/01/10 11:00:40;;;;;;;8.25;2.55;;;;;;;6.92;nan;101160.25;5015388;28;20491;-87
2023/01/10 11:03:24;;;;;;;12.60;2.63;;;;;;;6.96;nan;101162.53;5024175;28;20450;-88
2023/01/10 11:05:50;;;;;;;7.70;2.40;;;;;;;7.00;nan;101161.34;5036810;28;20041;-87
2023/01/10 11:08:18;;;;;;;10.20;2.88;;;;;;;7.07;nan;101160.91;5034636;28;20057;-87
2023/01/10 11:10:52;;;;;;;8.23;2.67;;;;;;;7.00;nan;101158.72;5019483;28;20411;-88
2023/01/10 11:13:58;;;;;;;8.25;2.33;;;;;;;7.05;nan;101162.81;5012632;28;20067;-87
2023/01/10 11:16:38;;;;;;;12.88;2.70;;;;;;;7.04;nan;101155.88;5016103;28;20049;-87
2023/01/10 11:19:15;;;;;;;11.63;2.58;;;;;;;7.06;nan;101148.72;5016481;28;20037;-88
2023/01/10 11:21:44;;;;;;;9.40;2.65;;;;;;;7.03;nan;101147.13;5033567;28;20508;-87
2023/01/10 11:24:35;;;;;;;10.02;2.63;;;;;;;7.10;nan;101150.16;5015072;28;20037;-88
2023/01/10 11:27:16;;;;;;;8.13;2.40;;;;;;;7.07;nan;101139.88;5035362;28;20045;-88
2023/01/10 11:29:49;;;;;;;10.45;2.92;;;;;;;7.13;nan;101144.69;5029750;28;20989;-87
2023/01/10 11:32:18;;;;;;;13.05;2.95;;;;;;;7.15;nan;101150.66;5016551;28;20106;-88
2023/01/10 11:34:54;;;;;;;9.63;2.83;;;;;;;7.17;nan;101146.13;5015707;28;20131;-87
2023/01/10 11:37:27;;;;;;;15.80;3.13;;;;;;;7.13;nan;101142.06;5015821;28;20107;-87
2023/01/10 11:40:25;;;;;;;10.85;2.88;;;;;;;7.17;nan;101154.84;5031141;28;20045;-87
2023/01/10 11:42:53;;;;;;;13.52;3.40;;;;;;;7.21;nan;101156.28;5013457;28;20048;-87
2023/01/10 11:45:21;;;;;;;8.27;2.45;;;;;;;7.26;nan;101158.59;5020168;28;20037;-87
2023/01/10 11:48:05;;;;;;;14.55;3.08;;;;;;;7.45;nan;101163.28;5018100;28;20439;-87
2023/01/10 11:50:34;;;;;;;11.30;3.45;;;;;;;7.66;nan;101160.84;5028363;28;20117;-87
2023/01/10 11:53:00;;;;;;;13.18;3.10;;;;;;;7.69;nan;101157.97;5015262;28;20037;-88
2023/01/10 11:55:31;;;;;;;12.13;2.80;;;;;;;7.75;nan;101159.31;5031384;28;20042;-88
2023/01/10 11:58:08;;;;;;;9.02;2.72;;;;;;;7.79;nan;101158.91;5024050;28;20099;-89
2023/01/10 12:00:51;;;;;;;12.10;3.65;;;;;;;7.91;nan;101151.03;5008138;28;20037;-90
2023/01/10 12:03:23;;;;;;;11.43;3.67;;;;;;;7.91;nan;101151.03;5028809;28;20041;-90
2023/01/10 12:05:51;;;;;;;14.00;3.63;;;;;;;7.99;nan;101146.03;5025255;28;20408;-90
2023/01/10 12:08:26;;;;;;;13.32;3.35;;;;;;;7.97;nan;101145.31;5024117;28;20071;-88
2023/01/10 12:11:17;;;;;;;10.77;3.20;;;;;;;7.96;nan;101138.34;5028221;28;20030;-89
2023/01/10 12:13:47;;;;;;;;;;;;;;;7.89;nan;101135.38;5018045;28;20076;-89